Oro Valley, AZ (85737)

9:52 AM MST on April 28, 2015 (GMT -0700)
OV Copper Creek | | Change Station
CLOSE
Current Station
Personal Weather Station
Location: Oro Valley, AZ
Elevation: 2733 ft
Nearby Weather Stations

Elev 2733 ft 32.41 °N, 110.99 °W | Updated 14 seconds ago

Clear
Clear
0.0 °F
Feels Like 0.0 °F
N
1.3
Wind Variable Wind from SE
Gusts 1.3 mph

Today
High -- | Low -- °F
--% Chance of Precip.
Yesterday
High -- | Low -- °F
Precip. -- in
5:40 AM 7:02 PM
Waxing Gibbous, 75% visible
Pressure 29.99 in
Visibility 10.0 miles
Clouds Clear
Dew Point Not available.
Humidity Not available.
Rainfall 0.00 in
Snow Depth Not available.
UV 5 out of 12
Pollen 8.10 out of 12
Air Quality Not available.
Flu Activity Local Activity
METAR KDMA 281558Z AUTO 12015KT 10SM CLR 22/02 A3009 RMK AO2 SLP155 T02150015 $

More Conditions Fewer Conditions

Pressure 29.99 in
Visibility 10.0 miles
Clouds Clear
Dew Point Not available.
Humidity Not available.
Rainfall 0.00 in
Snow Depth Not available.
UV 5 out of 12
Pollen 8.10 out of 12
Air Quality Not available.
Flu Activity Local Activity
METAR KDMA 281558Z AUTO 12015KT 10SM CLR 22/02 A3009 RMK AO2 SLP155 T02150015 $

More Conditions Fewer Conditions

10-Day Weather Forecast

Almanac

Astronomy

Apr. 28, 2015 Rise Set
Actual Time
Civil Twilight
Nautical Twilight
Astronomical Twilight
Moon
Length of Visible Light
Length of Day
Tomorrow will be .
, % of the Moon is Illuminated

Today's Extremes

State Highs State Lows

Community

WunderPhotos

Upload Photos

1,817,699 photos uploaded!

WunderBlogs® & News

Nearby

Air Quality

  Air Quality AQ Index Pollutant
Not available.

Snow Depth

Station Depth Elevation

Earthquake Activity

City Distance Mag. Time & Date
Minimum magnitude displayed is 2.5.

Coastal Water Temperatures

Place Temperature

Stations

Nearby Weather Stations

Station Location Temp. Windchill Dew Point Humidity Wind Precip. Elev Updated Type